createdAt,value
2023-04-08T00:00:00.978Z,7.58
2023-04-08T00:01:00.945Z,7.53
2023-04-08T00:02:01.011Z,7.50
2023-04-08T00:03:01.087Z,7.53
2023-04-08T00:04:01.022Z,7.51
2023-04-08T00:05:00.900Z,7.48
2023-04-08T00:06:00.897Z,7.46
2023-04-08T00:07:00.869Z,7.46
2023-04-08T00:08:00.883Z,7.47
2023-04-08T00:09:00.840Z,7.44
2023-04-08T00:10:00.838Z,7.44
2023-04-08T00:11:00.806Z,7.41
2023-04-08T00:12:00.819Z,7.43
2023-04-08T00:13:00.804Z,7.41
2023-04-08T00:14:00.781Z,7.39
2023-04-08T00:15:00.775Z,7.39
2023-04-08T00:16:00.757Z,7.36
2023-04-08T00:17:00.870Z,7.37
2023-04-08T00:18:00.766Z,7.33
2023-04-08T00:19:00.708Z,7.32
2023-04-08T00:20:00.687Z,7.29
2023-04-08T00:21:00.668Z,7.29
2023-04-08T00:22:00.678Z,7.28
2023-04-08T00:23:00.635Z,7.22
2023-04-08T00:24:00.636Z,7.19
2023-04-08T00:25:00.614Z,7.18
2023-04-08T00:26:00.612Z,7.13
2023-04-08T00:27:00.622Z,7.13
2023-04-08T00:28:00.589Z,7.11
2023-04-08T00:29:00.566Z,7.08
2023-04-08T00:30:00.575Z,7.05
2023-04-08T00:31:00.576Z,7.04
2023-04-08T00:32:00.553Z,7.01
2023-04-08T00:33:00.554Z,6.96
2023-04-08T00:34:00.515Z,6.95
2023-04-08T00:35:00.488Z,6.92
2023-04-08T00:36:00.554Z,6.90
2023-04-08T00:37:00.483Z,6.90
2023-04-08T00:38:00.460Z,6.87
2023-04-08T00:39:00.439Z,6.86
2023-04-08T00:40:00.433Z,6.85
2023-04-08T00:41:00.406Z,6.85
2023-04-08T00:42:00.441Z,6.85
2023-04-08T00:43:00.384Z,6.86
2023-04-08T00:44:00.386Z,6.82
2023-04-08T00:45:00.365Z,6.78
2023-04-08T00:46:00.388Z,6.77
2023-04-08T00:47:00.346Z,6.75
2023-04-08T00:48:00.429Z,6.77
2023-04-08T00:49:00.304Z,6.77
2023-04-08T00:50:00.313Z,6.77
2023-04-08T00:51:00.289Z,6.77
2023-04-08T00:52:00.288Z,6.74
2023-04-08T00:53:00.263Z,6.74
2023-04-08T00:54:00.252Z,6.74
2023-04-08T00:55:00.237Z,6.72
2023-04-08T00:56:00.215Z,6.75
2023-04-08T00:57:00.238Z,6.75
2023-04-08T00:58:00.214Z,6.80
2023-04-08T00:59:00.212Z,6.78
2023-04-08T01:00:00.238Z,6.78
2023-04-08T01:01:00.159Z,6.78
2023-04-08T01:02:00.298Z,6.80
2023-04-08T01:03:00.214Z,6.78
2023-04-08T01:04:00.227Z,6.78
2023-04-08T01:05:00.136Z,6.77
2023-04-08T01:06:00.107Z,6.80
2023-04-08T01:07:00.111Z,6.80
2023-04-08T01:08:00.148Z,6.77
2023-04-08T01:09:00.049Z,6.74
2023-04-08T01:10:00.044Z,6.72
2023-04-08T01:11:00.039Z,6.70
2023-04-08T01:12:00.036Z,6.67
2023-04-08T01:12:59.999Z,6.64
2023-04-08T01:13:59.988Z,6.62
2023-04-08T01:14:59.966Z,6.62
2023-04-08T01:16:00.012Z,6.57
2023-04-08T01:16:59.972Z,6.56
2023-04-08T01:17:59.967Z,6.54
2023-04-08T01:18:59.924Z,6.52
2023-04-08T01:19:59.912Z,6.47
2023-04-08T01:20:59.902Z,6.46
2023-04-08T01:21:59.898Z,6.43
2023-04-08T01:22:59.872Z,6.39
2023-04-08T01:23:59.863Z,6.36
2023-04-08T01:24:59.851Z,6.35
2023-04-08T01:25:59.819Z,6.32
2023-04-08T01:26:59.845Z,6.28
2023-04-08T01:27:59.814Z,6.26
2023-04-08T01:28:59.806Z,6.22
2023-04-08T01:29:59.780Z,6.20
2023-04-08T01:30:59.845Z,6.17
2023-04-08T01:31:59.778Z,6.19
2023-04-08T01:32:59.891Z,6.17
2023-04-08T01:33:59.730Z,6.17
2023-04-08T01:34:59.716Z,6.17
2023-04-08T01:35:59.778Z,6.15
2023-04-08T01:36:59.719Z,6.15
2023-04-08T01:37:59.680Z,6.13
2023-04-08T01:38:59.669Z,6.10
2023-04-08T01:39:59.654Z,6.10
2023-04-08T01:40:59.639Z,6.05
2023-04-08T01:41:59.660Z,6.01
2023-04-08T01:42:59.612Z,5.99
2023-04-08T01:43:59.602Z,5.99
2023-04-08T01:44:59.596Z,6.01
2023-04-08T01:45:59.558Z,6.01
2023-04-08T01:46:59.604Z,5.98
2023-04-08T01:47:59.586Z,5.98
2023-04-08T01:48:59.543Z,5.97
2023-04-08T01:49:59.540Z,5.97
2023-04-08T01:50:59.522Z,5.99
2023-04-08T01:51:59.504Z,5.99
2023-04-08T01:52:59.502Z,6.05
2023-04-08T01:53:59.494Z,6.07
2023-04-08T01:54:59.462Z,6.10
2023-04-08T01:55:59.457Z,6.10
2023-04-08T01:56:59.436Z,6.12
2023-04-08T01:57:59.440Z,6.10
2023-04-08T01:58:59.413Z,6.10
2023-04-08T01:59:59.414Z,6.07
2023-04-08T02:00:59.393Z,6.06
2023-04-08T02:01:59.448Z,6.06
2023-04-08T02:02:59.668Z,6.02
2023-04-08T02:03:59.456Z,6.01
2023-04-08T02:04:59.330Z,5.99
2023-04-08T02:05:59.331Z,5.94
2023-04-08T02:06:59.311Z,5.91
2023-04-08T02:07:59.316Z,5.91
2023-04-08T02:08:59.282Z,5.91
2023-04-08T02:09:59.272Z,5.91
2023-04-08T02:10:59.267Z,5.92
2023-04-08T02:11:59.255Z,5.92
2023-04-08T02:12:59.251Z,5.94
2023-04-08T02:13:59.228Z,5.94
2023-04-08T02:14:59.217Z,5.95
2023-04-08T02:15:59.217Z,5.92
2023-04-08T02:16:59.182Z,5.92
2023-04-08T02:17:59.220Z,5.94
2023-04-08T02:18:59.162Z,5.90
2023-04-08T02:19:59.142Z,5.90
2023-04-08T02:20:59.144Z,5.88
2023-04-08T02:21:59.112Z,5.84
2023-04-08T02:22:59.112Z,5.83
2023-04-08T02:23:59.092Z,5.80
2023-04-08T02:24:59.077Z,5.77
2023-04-08T02:25:59.069Z,5.76
2023-04-08T02:26:59.053Z,5.73
2023-04-08T02:27:59.052Z,5.70
2023-04-08T02:28:59.021Z,5.69
2023-04-08T02:29:59.021Z,5.69
2023-04-08T02:30:58.991Z,5.70
2023-04-08T02:31:59.078Z,5.69
2023-04-08T02:32:59.018Z,5.67
2023-04-08T02:33:58.968Z,5.67
2023-04-08T02:34:58.942Z,5.65
2023-04-08T02:35:59.002Z,5.65
2023-04-08T02:36:58.928Z,5.64
2023-04-08T02:37:58.930Z,5.65
2023-04-08T02:38:58.895Z,5.65
2023-04-08T02:39:58.880Z,5.64
2023-04-08T02:40:58.873Z,5.64
2023-04-08T02:41:58.863Z,5.59
2023-04-08T02:42:58.870Z,5.58
2023-04-08T02:43:58.848Z,5.58
2023-04-08T02:44:58.810Z,5.52
2023-04-08T02:45:58.835Z,5.47
2023-04-08T02:46:58.801Z,5.40
2023-04-08T02:47:58.850Z,5.37
2023-04-08T02:48:58.758Z,5.34
2023-04-08T02:49:58.755Z,5.31
2023-04-08T02:50:58.743Z,5.28
2023-04-08T02:51:58.725Z,5.23
2023-04-08T02:52:58.726Z,5.22
2023-04-08T02:53:58.730Z,5.23
2023-04-08T02:54:58.686Z,5.23
2023-04-08T02:55:58.678Z,5.23
2023-04-08T02:56:58.660Z,5.23
2023-04-08T02:57:58.674Z,5.25
2023-04-08T02:58:58.630Z,5.25
2023-04-08T02:59:58.628Z,5.25
2023-04-08T03:00:58.654Z,5.26
2023-04-08T03:01:58.713Z,5.28
2023-04-08T03:02:58.693Z,5.29
2023-04-08T03:03:58.593Z,5.31
2023-04-08T03:04:58.560Z,5.31
2023-04-08T03:05:58.564Z,5.31
2023-04-08T03:06:58.542Z,5.31
2023-04-08T03:07:58.543Z,5.28
2023-04-08T03:08:58.525Z,5.25
2023-04-08T03:09:58.529Z,5.26
2023-04-08T03:10:58.477Z,5.23
2023-04-08T03:11:58.462Z,5.23
2023-04-08T03:12:58.474Z,5.22
2023-04-08T03:13:58.557Z,5.22
2023-04-08T03:14:58.422Z,5.22
2023-04-08T03:15:58.411Z,5.22
2023-04-08T03:16:58.435Z,5.22
2023-04-08T03:17:58.441Z,5.19
2023-04-08T03:18:58.371Z,5.19
2023-04-08T03:19:58.362Z,5.15
2023-04-08T03:20:58.344Z,5.13
2023-04-08T03:21:58.340Z,5.15
2023-04-08T03:22:58.328Z,5.13
2023-04-08T03:23:58.338Z,5.10
2023-04-08T03:24:58.286Z,5.08
2023-04-08T03:25:58.286Z,5.05
2023-04-08T03:26:58.281Z,5.04
2023-04-08T03:27:58.264Z,5.00
2023-04-08T03:28:58.269Z,4.98
2023-04-08T03:29:58.233Z,4.94
2023-04-08T03:30:58.210Z,4.92
2023-04-08T03:31:58.246Z,4.89
2023-04-08T03:32:58.203Z,4.89
2023-04-08T03:33:58.209Z,4.90
2023-04-08T03:34:58.157Z,4.89
2023-04-08T03:35:58.247Z,4.86
2023-04-08T03:36:58.140Z,4.84
2023-04-08T03:37:58.124Z,4.83
2023-04-08T03:38:58.117Z,4.84
2023-04-08T03:39:58.093Z,4.82
2023-04-08T03:40:58.095Z,4.82
2023-04-08T03:41:58.087Z,4.79
2023-04-08T03:42:58.056Z,4.79
2023-04-08T03:43:58.073Z,4.78
2023-04-08T03:44:58.031Z,4.78
2023-04-08T03:45:58.070Z,4.74
2023-04-08T03:46:58.025Z,4.74
2023-04-08T03:47:58.044Z,4.71
2023-04-08T03:48:57.999Z,4.70
2023-04-08T03:49:57.973Z,4.68
2023-04-08T03:50:57.965Z,4.67
2023-04-08T03:51:57.981Z,4.66
2023-04-08T03:52:57.923Z,4.66
2023-04-08T03:53:57.935Z,4.64
2023-04-08T03:54:57.901Z,4.64
2023-04-08T03:55:57.884Z,4.64
2023-04-08T03:56:57.874Z,4.63
2023-04-08T03:57:57.862Z,4.58
2023-04-08T03:58:57.854Z,4.53
2023-04-08T03:59:57.840Z,4.52
2023-04-08T04:00:57.817Z,4.49
2023-04-08T04:01:57.852Z,4.49
2023-04-08T04:02:57.836Z,4.46
2023-04-08T04:03:57.921Z,4.48
2023-04-08T04:04:57.835Z,4.45
2023-04-08T04:05:57.748Z,4.45
2023-04-08T04:06:57.746Z,4.43
2023-04-08T04:07:57.737Z,4.46
2023-04-08T04:08:57.724Z,4.49
2023-04-08T04:09:57.708Z,4.48
2023-04-08T04:10:57.685Z,4.46
2023-04-08T04:11:57.675Z,4.45
2023-04-08T04:12:57.658Z,4.42
2023-04-08T04:13:57.653Z,4.40
2023-04-08T04:14:57.623Z,4.39
2023-04-08T04:15:57.692Z,4.39
2023-04-08T04:16:57.603Z,4.39
2023-04-08T04:17:57.673Z,4.40
2023-04-08T04:18:57.619Z,4.40
2023-04-08T04:19:57.579Z,4.38
2023-04-08T04:20:57.576Z,4.39
2023-04-08T04:21:57.567Z,4.39
2023-04-08T04:22:57.544Z,4.40
2023-04-08T04:23:57.566Z,4.42
2023-04-08T04:24:57.509Z,4.45
2023-04-08T04:25:57.488Z,4.43
2023-04-08T04:26:57.479Z,4.42
2023-04-08T04:27:57.471Z,4.40
2023-04-08T04:28:57.477Z,4.32
2023-04-08T04:29:57.438Z,4.28
2023-04-08T04:30:57.440Z,4.25
2023-04-08T04:31:57.406Z,4.22
2023-04-08T04:32:57.460Z,4.21
2023-04-08T04:33:57.397Z,4.18
2023-04-08T04:34:57.370Z,4.20
2023-04-08T04:35:57.438Z,4.20
2023-04-08T04:36:57.340Z,4.20
2023-04-08T04:37:57.363Z,4.20
2023-04-08T04:38:57.359Z,4.16
2023-04-08T04:39:57.309Z,4.16
2023-04-08T04:40:57.282Z,4.16
2023-04-08T04:41:57.279Z,4.18
2023-04-08T04:42:57.263Z,4.18
2023-04-08T04:43:57.276Z,4.16
2023-04-08T04:44:57.235Z,4.13
2023-04-08T04:45:57.280Z,4.12
2023-04-08T04:46:57.207Z,4.10
2023-04-08T04:47:57.271Z,4.09
2023-04-08T04:48:57.189Z,4.07
2023-04-08T04:49:57.180Z,4.06
2023-04-08T04:50:57.149Z,4.06
2023-04-08T04:51:57.159Z,4.06
2023-04-08T04:52:57.119Z,4.06
2023-04-08T04:53:57.138Z,4.09
2023-04-08T04:54:57.112Z,4.09
2023-04-08T04:55:57.101Z,4.07
2023-04-08T04:56:57.080Z,4.09
2023-04-08T04:57:57.085Z,4.10
2023-04-08T04:58:57.081Z,4.09
2023-04-08T04:59:57.047Z,4.10
2023-04-08T05:00:57.044Z,4.12
2023-04-08T05:01:57.135Z,4.12
2023-04-08T05:02:57.046Z,4.13
2023-04-08T05:03:57.011Z,4.12
2023-04-08T05:04:57.009Z,4.07
2023-04-08T05:05:56.977Z,4.04
2023-04-08T05:06:56.957Z,4.04
2023-04-08T05:07:56.943Z,4.02
2023-04-08T05:08:56.925Z,4.03
2023-04-08T05:09:56.935Z,4.02
2023-04-08T05:10:56.905Z,4.03
2023-04-08T05:11:56.882Z,4.03
2023-04-08T05:12:56.872Z,4.00
2023-04-08T05:13:56.864Z,3.99
2023-04-08T05:14:56.846Z,3.95
2023-04-08T05:15:56.894Z,3.92
2023-04-08T05:16:56.817Z,3.89
2023-04-08T05:17:56.839Z,3.85
2023-04-08T05:18:56.796Z,3.82
2023-04-08T05:19:56.799Z,3.81
2023-04-08T05:20:56.775Z,3.77
2023-04-08T05:21:56.756Z,3.77
2023-04-08T05:22:56.765Z,3.77
2023-04-08T05:23:56.736Z,3.77
2023-04-08T05:24:56.737Z,3.81
2023-04-08T05:25:56.702Z,3.78
2023-04-08T05:26:56.731Z,3.81
2023-04-08T05:27:56.690Z,3.81
2023-04-08T05:28:56.677Z,3.81
2023-04-08T05:29:56.681Z,3.82
2023-04-08T05:30:56.653Z,3.82
2023-04-08T05:31:56.650Z,3.77
2023-04-08T05:32:59.377Z,3.76
2023-04-08T05:33:56.609Z,3.77
2023-04-08T05:34:56.609Z,3.77
2023-04-08T05:35:56.630Z,3.81
2023-04-08T05:36:56.616Z,3.82
2023-04-08T05:37:56.560Z,3.84
2023-04-08T05:38:56.549Z,3.84
2023-04-08T05:39:56.533Z,3.85
2023-04-08T05:40:56.518Z,3.89
2023-04-08T05:41:56.498Z,3.89
2023-04-08T05:42:56.502Z,3.92
2023-04-08T05:43:56.468Z,3.94
2023-04-08T05:44:56.489Z,3.99
2023-04-08T05:45:56.452Z,3.99
2023-04-08T05:46:56.500Z,3.95
2023-04-08T05:47:56.463Z,4.02
2023-04-08T05:48:56.407Z,3.99
2023-04-08T05:49:56.484Z,4.03
2023-04-08T05:50:56.386Z,4.04
2023-04-08T05:51:56.370Z,4.03
2023-04-08T05:52:56.346Z,4.02
2023-04-08T05:53:56.344Z,4.03
2023-04-08T05:54:56.367Z,4.03
2023-04-08T05:55:56.307Z,4.03
2023-04-08T05:56:56.290Z,4.03
2023-04-08T05:57:56.273Z,4.02
2023-04-08T05:58:56.269Z,3.99
2023-04-08T05:59:56.261Z,3.99
2023-04-08T06:01:03.426Z,3.96
2023-04-08T06:01:56.375Z,4.00
2023-04-08T06:02:56.397Z,4.03
2023-04-08T06:03:56.672Z,4.00
2023-04-08T06:04:56.292Z,3.99
2023-04-08T06:05:56.162Z,3.99
2023-04-08T06:06:56.158Z,3.99
2023-04-08T06:07:56.140Z,3.96
2023-04-08T06:08:56.127Z,3.99
2023-04-08T06:09:56.124Z,4.00
2023-04-08T06:10:56.100Z,4.00
2023-04-08T06:11:56.080Z,4.03
2023-04-08T06:12:56.070Z,4.02
2023-04-08T06:13:56.058Z,4.03
2023-04-08T06:14:56.199Z,4.04
2023-04-08T06:15:56.030Z,4.07
2023-04-08T06:16:56.104Z,4.07
2023-04-08T06:17:56.072Z,4.09
2023-04-08T06:18:56.008Z,4.10
2023-04-08T06:19:56.024Z,4.12
2023-04-08T06:20:55.974Z,4.13
2023-04-08T06:21:55.950Z,4.13
2023-04-08T06:22:55.945Z,4.13
2023-04-08T06:23:55.929Z,4.18
2023-04-08T06:24:55.957Z,4.18
2023-04-08T06:25:55.909Z,4.20
2023-04-08T06:26:55.905Z,4.18
2023-04-08T06:27:55.882Z,4.18
2023-04-08T06:28:55.864Z,4.14
2023-04-08T06:29:55.871Z,4.13
2023-04-08T06:30:55.834Z,4.13
2023-04-08T06:31:55.884Z,4.09
2023-04-08T06:32:55.861Z,4.07
2023-04-08T06:33:55.802Z,4.03
2023-04-08T06:34:55.820Z,3.99
2023-04-08T06:35:55.841Z,3.96
2023-04-08T06:36:55.770Z,3.96
2023-04-08T06:37:55.753Z,3.99
2023-04-08T06:38:55.748Z,3.96
2023-04-08T06:39:55.757Z,3.95
2023-04-08T06:40:55.720Z,3.95
2023-04-08T06:41:55.693Z,3.99
2023-04-08T06:42:55.690Z,4.02
2023-04-08T06:43:55.666Z,4.02
2023-04-08T06:44:55.688Z,4.03
2023-04-08T06:45:55.694Z,4.04
2023-04-08T06:46:55.636Z,4.07
2023-04-08T06:47:55.688Z,4.09
2023-04-08T06:48:55.610Z,4.12
2023-04-08T06:49:55.608Z,4.13
2023-04-08T06:50:55.586Z,4.13
2023-04-08T06:51:55.560Z,4.16
2023-04-08T06:52:55.557Z,4.21
2023-04-08T06:53:55.546Z,4.22
2023-04-08T06:54:55.556Z,4.25
2023-04-08T06:55:55.521Z,4.28
2023-04-08T06:56:55.506Z,4.30
2023-04-08T06:57:55.481Z,4.34
2023-04-08T06:58:55.473Z,4.38
2023-04-08T06:59:55.480Z,4.43
2023-04-08T07:00:55.483Z,4.48
2023-04-08T07:01:55.543Z,4.50
2023-04-08T07:02:55.466Z,4.53
2023-04-08T07:03:55.525Z,4.53
2023-04-08T07:04:55.423Z,4.56
2023-04-08T07:05:55.383Z,4.58
2023-04-08T07:06:55.377Z,4.60
2023-04-08T07:07:55.537Z,4.63
2023-04-08T07:08:55.369Z,4.70
2023-04-08T07:09:55.374Z,4.74
2023-04-08T07:10:55.327Z,4.75
2023-04-08T07:11:55.309Z,4.82
2023-04-08T07:12:55.299Z,4.79
2023-04-08T07:13:55.295Z,4.86
2023-04-08T07:14:55.287Z,4.89
2023-04-08T07:15:55.257Z,4.94
2023-04-08T07:16:55.275Z,4.98
2023-04-08T07:17:55.240Z,5.00
2023-04-08T07:18:55.214Z,5.05
2023-04-08T07:19:55.296Z,5.10
2023-04-08T07:20:55.193Z,5.15
2023-04-08T07:21:55.185Z,5.33
2023-04-08T07:22:55.188Z,5.54
2023-04-08T07:23:55.179Z,5.97
2023-04-08T07:24:55.298Z,6.16
2023-04-08T07:25:55.128Z,6.44
2023-04-08T07:26:55.122Z,6.77
2023-04-08T07:27:55.126Z,6.64
2023-04-08T07:28:55.089Z,6.52
2023-04-08T07:29:55.090Z,6.54
2023-04-08T07:30:55.108Z,6.64
2023-04-08T07:31:55.046Z,6.54
2023-04-08T07:32:55.086Z,6.35
2023-04-08T07:33:55.016Z,6.46
2023-04-08T07:34:55.032Z,6.54
2023-04-08T07:35:55.065Z,6.49
2023-04-08T07:36:55.003Z,6.38
2023-04-08T07:37:54.988Z,6.32
2023-04-08T07:38:54.959Z,6.26
2023-04-08T07:39:54.986Z,6.20
2023-04-08T07:40:54.932Z,6.19
2023-04-08T07:41:54.910Z,6.15
2023-04-08T07:42:54.910Z,6.12
2023-04-08T07:43:54.886Z,6.10
2023-04-08T07:44:54.894Z,6.10
2023-04-08T07:45:54.905Z,6.10
2023-04-08T07:46:54.857Z,6.10
2023-04-08T07:47:54.868Z,6.13
2023-04-08T07:48:54.846Z,6.15
2023-04-08T07:49:54.828Z,6.17
2023-04-08T07:51:08.029Z,6.19
2023-04-08T07:51:55.792Z,6.19
2023-04-08T07:52:54.781Z,6.22
2023-04-08T07:53:54.755Z,6.28
2023-04-08T07:54:54.766Z,6.32
2023-04-08T07:55:54.740Z,6.36
2023-04-08T07:56:54.724Z,6.36
2023-04-08T07:57:54.704Z,6.41
2023-04-08T07:58:54.943Z,6.46
2023-04-08T07:59:54.709Z,6.47
2023-04-08T08:00:54.680Z,6.46
2023-04-08T08:01:54.706Z,6.49
2023-04-08T08:02:54.698Z,6.49
2023-04-08T08:03:55.041Z,6.50
2023-04-08T08:04:54.701Z,6.50
2023-04-08T08:05:54.611Z,6.52
2023-04-08T08:06:54.604Z,6.53
2023-04-08T08:07:54.582Z,6.53
2023-04-08T08:08:54.584Z,6.53
2023-04-08T08:09:54.574Z,6.53
2023-04-08T08:10:54.555Z,6.53
2023-04-08T08:11:54.523Z,6.54
2023-04-08T08:12:54.524Z,6.57
2023-04-08T08:13:54.502Z,6.57
2023-04-08T08:14:54.508Z,6.57
2023-04-08T08:15:54.652Z,6.60
2023-04-08T08:16:54.467Z,6.60
2023-04-08T08:17:54.463Z,6.60
2023-04-08T08:18:54.440Z,6.62
2023-04-08T08:19:54.430Z,6.64
2023-04-08T08:20:54.414Z,6.67
2023-04-08T08:21:54.390Z,6.67
2023-04-08T08:22:57.636Z,6.68
2023-04-08T08:23:54.372Z,6.71
2023-04-08T08:24:54.392Z,6.75
2023-04-08T08:25:54.350Z,6.74
2023-04-08T08:26:54.332Z,6.75
2023-04-08T08:27:54.351Z,6.77
2023-04-08T08:28:54.324Z,6.75
2023-04-08T08:29:54.346Z,6.77
2023-04-08T08:30:54.334Z,6.77
2023-04-08T08:31:54.276Z,6.77
2023-04-08T08:32:54.265Z,6.75
2023-04-08T08:33:54.247Z,6.77
2023-04-08T08:34:54.238Z,6.78
2023-04-08T08:35:54.268Z,6.80
2023-04-08T08:36:54.229Z,6.83
2023-04-08T08:37:54.193Z,6.86
2023-04-08T08:38:54.189Z,6.89
2023-04-08T08:39:54.166Z,6.90
2023-04-08T08:40:54.177Z,6.95
2023-04-08T08:41:54.144Z,6.95
2023-04-08T08:42:54.142Z,6.96
2023-04-08T08:43:54.133Z,6.95
2023-04-08T08:44:54.108Z,6.96
2023-04-08T08:45:54.150Z,6.97
2023-04-08T08:46:54.175Z,7.01
2023-04-08T08:47:54.094Z,7.04
2023-04-08T08:48:54.059Z,7.08
2023-04-08T08:49:54.048Z,7.13
2023-04-08T08:50:54.059Z,7.14
2023-04-08T08:51:54.012Z,7.18
2023-04-08T08:52:53.996Z,7.21
2023-04-08T08:53:54.310Z,7.22
2023-04-08T08:54:53.982Z,7.21
2023-04-08T08:56:16.462Z,7.21
2023-04-08T08:56:54.947Z,7.22
2023-04-08T08:57:53.936Z,7.53
2023-04-08T08:58:53.941Z,8.03
2023-04-08T08:59:53.907Z,8.05
2023-04-08T09:00:53.931Z,7.91
2023-04-08T09:01:53.981Z,7.90
2023-04-08T09:02:54.137Z,7.84
2023-04-08T09:03:54.255Z,7.74
2023-04-08T09:04:54.044Z,7.70
2023-04-08T09:05:53.857Z,7.69
2023-04-08T09:06:53.820Z,7.66
2023-04-08T09:07:53.844Z,7.67
2023-04-08T09:08:53.797Z,7.64
2023-04-08T09:09:53.780Z,7.67
2023-04-08T09:10:53.788Z,7.67
2023-04-08T09:11:53.756Z,7.69
2023-04-08T09:12:53.747Z,7.72
2023-04-08T09:13:53.728Z,7.75
2023-04-08T09:14:53.728Z,7.77
2023-04-08T09:15:53.728Z,7.78
2023-04-08T09:16:53.806Z,7.80
2023-04-08T09:17:53.730Z,7.81
2023-04-08T09:18:53.728Z,7.83
2023-04-08T09:19:53.645Z,7.85
2023-04-08T09:20:53.663Z,7.87
2023-04-08T09:21:53.627Z,7.88
2023-04-08T09:22:53.617Z,7.88
2023-04-08T09:23:53.852Z,7.88
2023-04-08T09:24:53.619Z,7.90
2023-04-08T09:25:53.599Z,7.90
2023-04-08T09:26:53.566Z,7.91
2023-04-08T09:27:53.547Z,7.90
2023-04-08T09:28:53.601Z,7.91
2023-04-08T09:29:53.594Z,7.93
2023-04-08T09:30:53.527Z,7.93
2023-04-08T09:31:53.516Z,7.95
2023-04-08T09:32:53.609Z,7.93
2023-04-08T09:33:53.484Z,7.95
2023-04-08T09:34:53.469Z,7.93
2023-04-08T09:35:53.493Z,7.93
2023-04-08T09:36:53.450Z,7.93
2023-04-08T09:37:53.430Z,7.93
2023-04-08T09:38:53.409Z,7.98
2023-04-08T09:39:53.388Z,7.96
2023-04-08T09:40:53.423Z,7.96
2023-04-08T09:41:53.409Z,7.96
2023-04-08T09:42:53.372Z,7.98
2023-04-08T09:43:53.527Z,7.96
2023-04-08T09:44:53.331Z,7.99
2023-04-08T09:45:53.351Z,7.98
2023-04-08T09:46:53.307Z,8.01
2023-04-08T09:47:53.295Z,8.03
2023-04-08T09:48:53.267Z,8.03
2023-04-08T09:49:53.274Z,8.06
2023-04-08T09:50:53.246Z,8.06
2023-04-08T09:51:53.252Z,8.09
2023-04-08T09:52:53.214Z,8.11
2023-04-08T09:53:53.217Z,8.13
2023-04-08T09:54:53.237Z,8.16
2023-04-08T09:55:53.181Z,8.17
2023-04-08T09:56:53.188Z,8.18
2023-04-08T09:57:53.161Z,8.20
2023-04-08T09:58:53.135Z,8.21
2023-04-08T09:59:53.133Z,8.23
2023-04-08T10:00:53.205Z,8.26
2023-04-08T10:01:53.192Z,8.27
2023-04-08T10:02:53.195Z,8.28
2023-04-08T10:03:53.349Z,8.28
2023-04-08T10:04:53.553Z,8.31
2023-04-08T10:05:53.053Z,8.32
2023-04-08T10:06:53.067Z,8.32
2023-04-08T10:07:53.031Z,8.35
2023-04-08T10:08:52.999Z,8.38
2023-04-08T10:09:52.993Z,8.39
2023-04-08T10:10:52.979Z,8.41
2023-04-08T10:11:52.983Z,8.44
2023-04-08T10:12:52.964Z,8.44
2023-04-08T10:13:53.202Z,8.46
2023-04-08T10:14:52.919Z,8.52
2023-04-08T10:15:52.918Z,8.53
2023-04-08T10:16:53.334Z,8.54
2023-04-08T10:17:52.908Z,8.59
2023-04-08T10:18:52.932Z,8.60
2023-04-08T10:19:52.861Z,8.63
2023-04-08T10:20:52.848Z,8.66
2023-04-08T10:21:52.852Z,8.69
2023-04-08T10:22:52.829Z,8.71
2023-04-08T10:23:52.804Z,8.74
2023-04-08T10:24:52.832Z,8.75
2023-04-08T10:25:52.820Z,8.75
2023-04-08T10:26:52.775Z,8.77
2023-04-08T10:27:52.752Z,8.78
2023-04-08T10:28:52.733Z,8.81
2023-04-08T10:29:52.725Z,8.82
2023-04-08T10:30:52.706Z,8.86
2023-04-08T10:31:52.867Z,8.84
2023-04-08T10:32:52.716Z,8.84
2023-04-08T10:33:52.662Z,8.84
2023-04-08T10:34:52.652Z,8.87
2023-04-08T10:35:52.706Z,8.87
2023-04-08T10:36:52.639Z,8.87
2023-04-08T10:37:52.603Z,8.89
2023-04-08T10:38:52.601Z,8.89
2023-04-08T10:39:52.581Z,8.89
2023-04-08T10:40:52.564Z,8.90
2023-04-08T10:41:52.585Z,8.92
2023-04-08T10:42:52.534Z,8.92
2023-04-08T10:43:52.747Z,8.93
2023-04-08T10:44:52.515Z,8.95
2023-04-08T10:45:52.782Z,8.96
2023-04-08T10:46:52.492Z,8.97
2023-04-08T10:47:52.528Z,9.00
2023-04-08T10:48:52.456Z,9.02
2023-04-08T10:49:52.448Z,9.03
2023-04-08T10:50:52.435Z,9.08
2023-04-08T10:51:52.418Z,9.12
2023-04-08T10:52:52.441Z,9.13
2023-04-08T10:53:52.599Z,9.15
2023-04-08T10:54:52.374Z,9.21
2023-04-08T10:55:52.368Z,9.27
2023-04-08T10:56:52.412Z,9.34
2023-04-08T10:57:52.354Z,9.37
2023-04-08T10:58:52.315Z,9.40
2023-04-08T10:59:52.306Z,9.44
2023-04-08T11:00:52.297Z,9.48
2023-04-08T11:01:52.467Z,9.48
2023-04-08T11:02:52.443Z,9.49
2023-04-08T11:03:52.647Z,9.51
2023-04-08T11:04:52.240Z,9.47
2023-04-08T11:05:52.235Z,9.48
2023-04-08T11:06:52.217Z,9.52
2023-04-08T11:07:52.219Z,9.55
2023-04-08T11:08:52.332Z,9.58
2023-04-08T11:09:54.235Z,9.62
2023-04-08T11:10:54.234Z,9.64
2023-04-08T11:11:52.825Z,9.66
2023-04-08T11:12:52.151Z,9.67
2023-04-08T11:13:53.994Z,9.66
2023-04-08T11:14:52.111Z,9.67
2023-04-08T11:15:52.155Z,9.72
2023-04-08T11:16:52.135Z,9.77
2023-04-08T11:17:52.188Z,10.07
2023-04-08T11:18:52.225Z,10.49
2023-04-08T11:19:52.055Z,10.86
2023-04-08T11:20:52.123Z,11.19
2023-04-08T11:21:52.094Z,11.58
2023-04-08T11:22:52.092Z,11.83
2023-04-08T11:23:52.356Z,11.97
2023-04-08T11:24:51.986Z,12.12
2023-04-08T11:25:52.000Z,12.25
2023-04-08T11:26:51.989Z,12.28
2023-04-08T11:27:51.995Z,12.20
2023-04-08T11:28:52.186Z,11.99
2023-04-08T11:29:51.986Z,11.93
2023-04-08T11:30:51.909Z,11.97
2023-04-08T11:31:51.900Z,12.10
2023-04-08T11:32:51.941Z,12.20
2023-04-08T11:33:52.078Z,12.32
2023-04-08T11:34:52.623Z,12.50
2023-04-08T11:35:52.580Z,12.78
2023-04-08T11:36:51.814Z,12.83
2023-04-08T11:37:51.862Z,12.78
2023-04-08T11:38:51.867Z,12.70
2023-04-08T11:39:51.831Z,12.66
2023-04-08T11:40:51.776Z,12.58
2023-04-08T11:41:51.759Z,12.50
2023-04-08T11:42:52.065Z,12.39
2023-04-08T11:43:51.986Z,12.35
2023-04-08T11:44:51.740Z,12.36
2023-04-08T11:45:51.970Z,12.40
2023-04-08T11:46:51.734Z,12.40
2023-04-08T11:47:51.714Z,12.33
2023-04-08T11:48:51.665Z,12.29
2023-04-08T11:49:51.660Z,12.23
2023-04-08T11:50:51.662Z,12.21
2023-04-08T11:51:51.618Z,12.23
2023-04-08T11:52:51.677Z,12.20
2023-04-08T11:53:52.695Z,12.07
2023-04-08T11:54:51.577Z,11.89
2023-04-08T11:55:51.625Z,11.76
2023-04-08T11:56:51.590Z,11.65
2023-04-08T11:57:51.678Z,11.58
2023-04-08T11:58:51.601Z,11.44
2023-04-08T11:59:51.584Z,11.34
2023-04-08T12:00:51.498Z,11.27
2023-04-08T12:01:51.540Z,11.23
2023-04-08T12:02:51.645Z,11.16
2023-04-08T12:03:51.826Z,11.10
2023-04-08T12:04:51.467Z,11.02
2023-04-08T12:05:51.465Z,10.98
2023-04-08T12:06:51.420Z,10.95
2023-04-08T12:07:51.429Z,10.89
2023-04-08T12:08:51.397Z,10.87
2023-04-08T12:09:51.412Z,10.92
2023-04-08T12:10:51.372Z,10.95
2023-04-08T12:11:51.368Z,10.95
2023-04-08T12:12:51.364Z,10.95
2023-04-08T12:13:51.718Z,10.97
2023-04-08T12:14:51.354Z,10.97
2023-04-08T12:15:51.409Z,10.98
2023-04-08T12:16:51.292Z,11.04
2023-04-08T12:17:51.437Z,11.15
2023-04-08T12:18:51.264Z,11.20
2023-04-08T12:19:51.254Z,11.31
2023-04-08T12:20:51.274Z,11.35
2023-04-08T12:21:51.230Z,11.37
2023-04-08T12:22:51.307Z,11.43
2023-04-08T12:23:51.446Z,11.38
2023-04-08T12:24:51.277Z,11.35
2023-04-08T12:25:51.171Z,11.37
2023-04-08T12:26:51.547Z,11.34
2023-04-08T12:27:51.252Z,11.37
2023-04-08T12:28:51.148Z,11.41
2023-04-08T12:29:51.246Z,11.45
2023-04-08T12:30:51.159Z,11.53
2023-04-08T12:31:51.147Z,11.52
2023-04-08T12:32:51.151Z,11.44
2023-04-08T12:33:51.487Z,11.41
2023-04-08T12:34:51.099Z,11.41
2023-04-08T12:35:51.170Z,11.41
2023-04-08T12:36:51.042Z,11.43
2023-04-08T12:37:51.752Z,11.43
2023-04-08T12:38:51.237Z,11.45
2023-04-08T12:39:50.998Z,11.48
2023-04-08T12:40:51.016Z,11.48
2023-04-08T12:41:50.990Z,11.49
2023-04-08T12:42:51.067Z,11.55
2023-04-08T12:43:50.952Z,11.63
2023-04-08T12:44:50.954Z,11.71
2023-04-08T12:45:50.943Z,11.74
2023-04-08T12:46:50.931Z,11.76
2023-04-08T12:47:50.945Z,11.74
2023-04-08T12:48:59.949Z,11.73
2023-04-08T12:49:51.868Z,11.71
2023-04-08T12:50:50.892Z,11.65
2023-04-08T12:51:50.841Z,11.60
2023-04-08T12:52:50.851Z,11.58
2023-04-08T12:53:50.826Z,11.51
2023-04-08T12:54:50.795Z,11.45
2023-04-08T12:55:50.893Z,11.44
2023-04-08T12:56:50.776Z,11.38
2023-04-08T12:57:50.792Z,11.33
2023-04-08T12:58:50.885Z,11.26
2023-04-08T12:59:50.959Z,11.25
2023-04-08T13:00:50.753Z,11.23
2023-04-08T13:01:50.770Z,11.23
2023-04-08T13:02:50.805Z,11.22
2023-04-08T13:03:50.829Z,11.19
2023-04-08T13:04:50.700Z,11.15
2023-04-08T13:05:50.775Z,11.12
2023-04-08T13:06:50.644Z,11.12
2023-04-08T13:07:50.714Z,11.05
2023-04-08T13:08:50.752Z,11.02
2023-04-08T13:09:50.611Z,11.01
2023-04-08T13:10:50.591Z,10.98
2023-04-08T13:11:50.583Z,10.98
2023-04-08T13:12:50.594Z,10.98
2023-04-08T13:13:50.564Z,11.01